sensor_id;sensor_type;location;lat;lon;timestamp;temperature;humidity
23147;DHT22;11742;53.532;-1.478;2022-07-21T00:01:31;23.30;58.60
23147;DHT22;11742;53.532;-1.478;2022-07-21T00:03:56;23.30;57.90
23147;DHT22;11742;53.532;-1.478;2022-07-21T00:06:22;23.30;57.90
23147;DHT22;11742;53.532;-1.478;2022-07-21T00:08:48;23.30;57.90
23147;DHT22;11742;53.532;-1.478;2022-07-21T00:11:14;23.30;57.80
23147;DHT22;11742;53.532;-1.478;2022-07-21T00:13:39;23.40;57.90
23147;DHT22;11742;53.532;-1.478;2022-07-21T00:16:05;23.30;57.80
23147;DHT22;11742;53.532;-1.478;2022-07-21T00:18:31;23.30;57.80
23147;DHT22;11742;53.532;-1.478;2022-07-21T00:20:57;23.30;57.80
23147;DHT22;11742;53.532;-1.478;2022-07-21T00:23:24;23.40;57.80
23147;DHT22;11742;53.532;-1.478;2022-07-21T00:25:51;23.30;57.70
23147;DHT22;11742;53.532;-1.478;2022-07-21T00:28:17;23.40;57.80
23147;DHT22;11742;53.532;-1.478;2022-07-21T00:30:44;23.40;57.80
23147;DHT22;11742;53.532;-1.478;2022-07-21T00:33:10;23.40;57.80
23147;DHT22;11742;53.532;-1.478;2022-07-21T00:35:36;23.40;57.70
23147;DHT22;11742;53.532;-1.478;2022-07-21T00:38:02;23.40;57.70
23147;DHT22;11742;53.532;-1.478;2022-07-21T00:40:28;23.40;57.70
23147;DHT22;11742;53.532;-1.478;2022-07-21T00:42:54;23.40;57.70
23147;DHT22;11742;53.532;-1.478;2022-07-21T00:45:20;23.40;57.70
23147;DHT22;11742;53.532;-1.478;2022-07-21T00:47:46;23.40;57.70
23147;DHT22;11742;53.532;-1.478;2022-07-21T00:50:17;23.40;57.70
23147;DHT22;11742;53.532;-1.478;2022-07-21T00:52:44;23.40;57.70
23147;DHT22;11742;53.532;-1.478;2022-07-21T00:55:13;23.40;57.70
23147;DHT22;11742;53.532;-1.478;2022-07-21T00:57:40;23.40;57.70
23147;DHT22;11742;53.532;-1.478;2022-07-21T01:00:09;23.40;57.70
23147;DHT22;11742;53.532;-1.478;2022-07-21T01:02:35;23.40;57.70
23147;DHT22;11742;53.532;-1.478;2022-07-21T01:05:07;23.40;57.70
23147;DHT22;11742;53.532;-1.478;2022-07-21T01:07:42;23.40;57.70
23147;DHT22;11742;53.532;-1.478;2022-07-21T01:10:09;23.40;57.70
23147;DHT22;11742;53.532;-1.478;2022-07-21T01:12:36;23.40;57.70
23147;DHT22;11742;53.532;-1.478;2022-07-21T01:15:03;23.40;57.70
23147;DHT22;11742;53.532;-1.478;2022-07-21T01:17:29;23.40;57.70
23147;DHT22;11742;53.532;-1.478;2022-07-21T01:19:55;23.40;57.70
23147;DHT22;11742;53.532;-1.478;2022-07-21T01:22:20;23.40;57.70
23147;DHT22;11742;53.532;-1.478;2022-07-21T01:24:46;23.40;57.70
23147;DHT22;11742;53.532;-1.478;2022-07-21T01:27:12;23.40;57.70
23147;DHT22;11742;53.532;-1.478;2022-07-21T01:29:37;23.40;57.60
23147;DHT22;11742;53.532;-1.478;2022-07-21T01:32:03;23.40;57.70
23147;DHT22;11742;53.532;-1.478;2022-07-21T01:34:30;23.40;57.70
23147;DHT22;11742;53.532;-1.478;2022-07-21T01:36:55;23.40;57.70
23147;DHT22;11742;53.532;-1.478;2022-07-21T01:39:21;23.30;57.60
23147;DHT22;11742;53.532;-1.478;2022-07-21T01:42:06;23.30;57.60
23147;DHT22;11742;53.532;-1.478;2022-07-21T01:44:31;23.40;57.60
23147;DHT22;11742;53.532;-1.478;2022-07-21T01:46:57;23.40;57.60
23147;DHT22;11742;53.532;-1.478;2022-07-21T01:49:23;23.40;57.70
23147;DHT22;11742;53.532;-1.478;2022-07-21T01:51:49;23.40;57.60
23147;DHT22;11742;53.532;-1.478;2022-07-21T01:54:15;23.40;57.60
23147;DHT22;11742;53.532;-1.478;2022-07-21T01:56:41;23.40;57.60
23147;DHT22;11742;53.532;-1.478;2022-07-21T01:59:07;23.30;57.50
23147;DHT22;11742;53.532;-1.478;2022-07-21T02:01:34;23.40;57.50
23147;DHT22;11742;53.532;-1.478;2022-07-21T02:04:03;23.40;57.60
23147;DHT22;11742;53.532;-1.478;2022-07-21T02:06:29;23.40;57.60
23147;DHT22;11742;53.532;-1.478;2022-07-21T02:08:55;23.40;58.30
23147;DHT22;11742;53.532;-1.478;2022-07-21T02:11:21;23.40;57.60
23147;DHT22;11742;53.532;-1.478;2022-07-21T02:13:47;23.30;57.50
23147;DHT22;11742;53.532;-1.478;2022-07-21T02:16:14;23.30;57.50
23147;DHT22;11742;53.532;-1.478;2022-07-21T02:18:40;23.30;57.50
23147;DHT22;11742;53.532;-1.478;2022-07-21T02:21:06;23.40;57.60
23147;DHT22;11742;53.532;-1.478;2022-07-21T02:23:33;23.40;57.70
23147;DHT22;11742;53.532;-1.478;2022-07-21T02:25:59;23.40;57.60
23147;DHT22;11742;53.532;-1.478;2022-07-21T02:28:25;23.40;57.70
23147;DHT22;11742;53.532;-1.478;2022-07-21T02:30:52;23.40;57.60
23147;DHT22;11742;53.532;-1.478;2022-07-21T02:33:18;23.30;57.60
23147;DHT22;11742;53.532;-1.478;2022-07-21T02:35:44;23.40;57.60
23147;DHT22;11742;53.532;-1.478;2022-07-21T02:38:11;23.30;57.60
23147;DHT22;11742;53.532;-1.478;2022-07-21T02:40:37;23.40;57.70
23147;DHT22;11742;53.532;-1.478;2022-07-21T02:43:04;23.30;57.60
23147;DHT22;11742;53.532;-1.478;2022-07-21T02:45:31;23.30;57.70
23147;DHT22;11742;53.532;-1.478;2022-07-21T02:48:00;23.30;57.80
23147;DHT22;11742;53.532;-1.478;2022-07-21T02:50:29;23.30;57.70
23147;DHT22;11742;53.532;-1.478;2022-07-21T02:53:01;23.30;57.80
23147;DHT22;11742;53.532;-1.478;2022-07-21T02:55:27;23.30;57.90
23147;DHT22;11742;53.532;-1.478;2022-07-21T02:58:16;23.30;58.00
23147;DHT22;11742;53.532;-1.478;2022-07-21T03:00:51;23.30;58.00
23147;DHT22;11742;53.532;-1.478;2022-07-21T03:03:17;23.30;58.10
23147;DHT22;11742;53.532;-1.478;2022-07-21T03:05:44;23.30;58.00
23147;DHT22;11742;53.532;-1.478;2022-07-21T03:08:10;23.30;58.10
23147;DHT22;11742;53.532;-1.478;2022-07-21T03:10:37;23.30;58.10
23147;DHT22;11742;53.532;-1.478;2022-07-21T03:13:04;23.30;58.00
23147;DHT22;11742;53.532;-1.478;2022-07-21T03:15:30;23.30;58.10
23147;DHT22;11742;53.532;-1.478;2022-07-21T03:17:56;23.30;58.10
23147;DHT22;11742;53.532;-1.478;2022-07-21T03:20:27;23.30;58.00
23147;DHT22;11742;53.532;-1.478;2022-07-21T03:22:53;23.30;58.10
23147;DHT22;11742;53.532;-1.478;2022-07-21T03:25:19;23.20;58.10
23147;DHT22;11742;53.532;-1.478;2022-07-21T03:27:46;23.30;58.30
23147;DHT22;11742;53.532;-1.478;2022-07-21T03:30:12;23.20;58.10
23147;DHT22;11742;53.532;-1.478;2022-07-21T03:32:38;23.20;58.20
23147;DHT22;11742;53.532;-1.478;2022-07-21T03:35:05;23.20;58.20
23147;DHT22;11742;53.532;-1.478;2022-07-21T03:37:32;23.20;58.20
23147;DHT22;11742;53.532;-1.478;2022-07-21T03:39:58;23.20;58.30
23147;DHT22;11742;53.532;-1.478;2022-07-21T03:42:23;23.20;58.20
23147;DHT22;11742;53.532;-1.478;2022-07-21T03:44:49;23.20;58.20
23147;DHT22;11742;53.532;-1.478;2022-07-21T03:47:15;23.20;58.30
23147;DHT22;11742;53.532;-1.478;2022-07-21T03:49:41;23.20;58.30
23147;DHT22;11742;53.532;-1.478;2022-07-21T03:52:07;23.20;58.30
23147;DHT22;11742;53.532;-1.478;2022-07-21T03:54:32;23.20;58.20
23147;DHT22;11742;53.532;-1.478;2022-07-21T03:56:58;23.20;58.20
23147;DHT22;11742;53.532;-1.478;2022-07-21T03:59:24;23.20;58.40
23147;DHT22;11742;53.532;-1.478;2022-07-21T04:01:49;23.20;58.30
23147;DHT22;11742;53.532;-1.478;2022-07-21T04:04:15;23.20;58.30
23147;DHT22;11742;53.532;-1.478;2022-07-21T04:06:41;23.20;58.30
23147;DHT22;11742;53.532;-1.478;2022-07-21T04:09:06;23.20;58.40
23147;DHT22;11742;53.532;-1.478;2022-07-21T04:11:32;23.20;58.40
23147;DHT22;11742;53.532;-1.478;2022-07-21T04:13:58;23.20;58.30
23147;DHT22;11742;53.532;-1.478;2022-07-21T04:16:24;23.20;58.30
23147;DHT22;11742;53.532;-1.478;2022-07-21T04:18:50;23.10;58.40
23147;DHT22;11742;53.532;-1.478;2022-07-21T04:21:16;23.20;58.50
23147;DHT22;11742;53.532;-1.478;2022-07-21T04:23:41;23.20;58.40
23147;DHT22;11742;53.532;-1.478;2022-07-21T04:26:07;23.10;58.30
23147;DHT22;11742;53.532;-1.478;2022-07-21T04:28:33;23.20;58.30
23147;DHT22;11742;53.532;-1.478;2022-07-21T04:30:59;23.20;58.60
23147;DHT22;11742;53.532;-1.478;2022-07-21T04:33:24;23.20;58.60
23147;DHT22;11742;53.532;-1.478;2022-07-21T04:35:50;23.10;58.50
23147;DHT22;11742;53.532;-1.478;2022-07-21T04:38:16;23.10;58.50
23147;DHT22;11742;53.532;-1.478;2022-07-21T04:40:43;23.10;58.60
23147;DHT22;11742;53.532;-1.478;2022-07-21T04:43:09;23.10;58.70
23147;DHT22;11742;53.532;-1.478;2022-07-21T04:45:34;23.10;58.90
23147;DHT22;11742;53.532;-1.478;2022-07-21T04:48:00;23.10;58.80
23147;DHT22;11742;53.532;-1.478;2022-07-21T04:50:27;23.10;59.30
23147;DHT22;11742;53.532;-1.478;2022-07-21T04:52:53;23.10;59.50
23147;DHT22;11742;53.532;-1.478;2022-07-21T04:55:20;23.10;59.40
23147;DHT22;11742;53.532;-1.478;2022-07-21T04:57:48;23.10;59.30
23147;DHT22;11742;53.532;-1.478;2022-07-21T05:00:18;23.10;59.50
23147;DHT22;11742;53.532;-1.478;2022-07-21T05:02:45;23.10;59.60
23147;DHT22;11742;53.532;-1.478;2022-07-21T05:05:11;23.10;59.50
23147;DHT22;11742;53.532;-1.478;2022-07-21T05:07:37;23.10;59.30
23147;DHT22;11742;53.532;-1.478;2022-07-21T05:10:08;23.10;59.20
23147;DHT22;11742;53.532;-1.478;2022-07-21T05:12:35;23.10;59.50
23147;DHT22;11742;53.532;-1.478;2022-07-21T05:15:01;23.10;59.60
23147;DHT22;11742;53.532;-1.478;2022-07-21T05:17:27;23.10;59.30
23147;DHT22;11742;53.532;-1.478;2022-07-21T05:19:53;23.10;59.20
23147;DHT22;11742;53.532;-1.478;2022-07-21T05:22:19;23.10;59.10
23147;DHT22;11742;53.532;-1.478;2022-07-21T05:24:45;23.10;59.00
23147;DHT22;11742;53.532;-1.478;2022-07-21T05:27:11;23.10;59.00
23147;DHT22;11742;53.532;-1.478;2022-07-21T05:29:37;23.10;59.20
23147;DHT22;11742;53.532;-1.478;2022-07-21T05:32:03;23.00;59.00
23147;DHT22;11742;53.532;-1.478;2022-07-21T05:34:28;23.00;59.00
23147;DHT22;11742;53.532;-1.478;2022-07-21T05:36:54;23.10;59.20
23147;DHT22;11742;53.532;-1.478;2022-07-21T05:39:20;23.00;59.00
23147;DHT22;11742;53.532;-1.478;2022-07-21T05:41:46;23.00;58.90
23147;DHT22;11742;53.532;-1.478;2022-07-21T05:44:12;23.00;59.00
23147;DHT22;11742;53.532;-1.478;2022-07-21T05:46:38;23.00;58.90
23147;DHT22;11742;53.532;-1.478;2022-07-21T05:49:04;23.00;59.00
23147;DHT22;11742;53.532;-1.478;2022-07-21T05:51:29;23.00;59.00
23147;DHT22;11742;53.532;-1.478;2022-07-21T05:53:55;23.00;58.90
23147;DHT22;11742;53.532;-1.478;2022-07-21T05:56:21;23.00;58.90
23147;DHT22;11742;53.532;-1.478;2022-07-21T05:58:47;23.00;58.90
23147;DHT22;11742;53.532;-1.478;2022-07-21T06:01:12;23.00;58.80
23147;DHT22;11742;53.532;-1.478;2022-07-21T06:03:43;23.00;58.90
23147;DHT22;11742;53.532;-1.478;2022-07-21T06:06:09;23.00;58.90
23147;DHT22;11742;53.532;-1.478;2022-07-21T06:08:37;23.00;58.90
23147;DHT22;11742;53.532;-1.478;2022-07-21T06:11:03;23.00;58.90
23147;DHT22;11742;53.532;-1.478;2022-07-21T06:13:29;23.00;58.90
23147;DHT22;11742;53.532;-1.478;2022-07-21T06:15:54;23.00;58.90
23147;DHT22;11742;53.532;-1.478;2022-07-21T06:18:20;23.00;58.80
23147;DHT22;11742;53.532;-1.478;2022-07-21T06:20:46;23.00;58.90
23147;DHT22;11742;53.532;-1.478;2022-07-21T06:23:11;23.00;58.90
23147;DHT22;11742;53.532;-1.478;2022-07-21T06:25:37;23.00;58.90
23147;DHT22;11742;53.532;-1.478;2022-07-21T06:28:03;23.00;59.00
23147;DHT22;11742;53.532;-1.478;2022-07-21T06:30:29;23.00;59.00
23147;DHT22;11742;53.532;-1.478;2022-07-21T06:32:54;23.00;58.80
23147;DHT22;11742;53.532;-1.478;2022-07-21T06:35:20;23.00;59.10
23147;DHT22;11742;53.532;-1.478;2022-07-21T06:37:46;23.00;59.30
23147;DHT22;11742;53.532;-1.478;2022-07-21T06:40:13;23.00;59.30
23147;DHT22;11742;53.532;-1.478;2022-07-21T06:42:39;23.00;59.20
23147;DHT22;11742;53.532;-1.478;2022-07-21T06:45:05;23.00;59.30
23147;DHT22;11742;53.532;-1.478;2022-07-21T06:47:31;23.00;59.10
23147;DHT22;11742;53.532;-1.478;2022-07-21T06:49:57;23.00;58.90
23147;DHT22;11742;53.532;-1.478;2022-07-21T06:52:28;23.00;58.80
23147;DHT22;11742;53.532;-1.478;2022-07-21T06:54:54;23.00;58.80
23147;DHT22;11742;53.532;-1.478;2022-07-21T06:57:20;23.00;58.70
23147;DHT22;11742;53.532;-1.478;2022-07-21T06:59:46;23.00;58.70
23147;DHT22;11742;53.532;-1.478;2022-07-21T07:02:12;23.00;58.80
23147;DHT22;11742;53.532;-1.478;2022-07-21T07:04:37;23.00;58.60
23147;DHT22;11742;53.532;-1.478;2022-07-21T07:07:03;23.00;58.60
23147;DHT22;11742;53.532;-1.478;2022-07-21T07:09:29;23.00;58.60
23147;DHT22;11742;53.532;-1.478;2022-07-21T07:11:55;23.00;58.60
23147;DHT22;11742;53.532;-1.478;2022-07-21T07:14:31;23.00;58.60
23147;DHT22;11742;53.532;-1.478;2022-07-21T07:16:57;23.00;58.60
23147;DHT22;11742;53.532;-1.478;2022-07-21T07:19:23;23.00;58.70
23147;DHT22;11742;53.532;-1.478;2022-07-21T07:21:49;23.00;58.80
23147;DHT22;11742;53.532;-1.478;2022-07-21T07:24:15;23.00;58.70
23147;DHT22;11742;53.532;-1.478;2022-07-21T07:26:41;23.00;58.80
23147;DHT22;11742;53.532;-1.478;2022-07-21T07:29:06;23.00;58.90
23147;DHT22;11742;53.532;-1.478;2022-07-21T07:31:32;23.00;59.00
23147;DHT22;11742;53.532;-1.478;2022-07-21T07:33:58;23.00;59.00
23147;DHT22;11742;53.532;-1.478;2022-07-21T07:36:24;23.00;59.10
23147;DHT22;11742;53.532;-1.478;2022-07-21T07:38:51;23.00;59.20
23147;DHT22;11742;53.532;-1.478;2022-07-21T07:41:19;23.00;59.20
23147;DHT22;11742;53.532;-1.478;2022-07-21T07:43:45;23.00;59.20
23147;DHT22;11742;53.532;-1.478;2022-07-21T07:46:12;23.10;59.30
23147;DHT22;11742;53.532;-1.478;2022-07-21T07:48:39;23.10;59.20
23147;DHT22;11742;53.532;-1.478;2022-07-21T07:51:06;23.10;59.20
23147;DHT22;11742;53.532;-1.478;2022-07-21T07:53:32;23.10;59.20
23147;DHT22;11742;53.532;-1.478;2022-07-21T07:55:58;23.10;59.20
23147;DHT22;11742;53.532;-1.478;2022-07-21T07:58:24;23.10;59.10
23147;DHT22;11742;53.532;-1.478;2022-07-21T08:00:49;23.10;59.10
23147;DHT22;11742;53.532;-1.478;2022-07-21T08:03:15;23.10;59.10
23147;DHT22;11742;53.532;-1.478;2022-07-21T08:05:41;23.10;59.20
23147;DHT22;11742;53.532;-1.478;2022-07-21T08:08:07;23.10;59.20
23147;DHT22;11742;53.532;-1.478;2022-07-21T08:10:33;23.10;59.10
23147;DHT22;11742;53.532;-1.478;2022-07-21T08:12:59;23.20;59.00
23147;DHT22;11742;53.532;-1.478;2022-07-21T08:15:25;23.20;59.00
23147;DHT22;11742;53.532;-1.478;2022-07-21T08:17:51;23.20;59.00
23147;DHT22;11742;53.532;-1.478;2022-07-21T08:20:17;23.20;58.90
23147;DHT22;11742;53.532;-1.478;2022-07-21T08:22:43;23.20;59.00
23147;DHT22;11742;53.532;-1.478;2022-07-21T08:25:09;23.20;59.00
23147;DHT22;11742;53.532;-1.478;2022-07-21T08:27:35;23.20;59.00
23147;DHT22;11742;53.532;-1.478;2022-07-21T08:30:00;23.20;59.00
23147;DHT22;11742;53.532;-1.478;2022-07-21T08:32:26;23.20;59.00
23147;DHT22;11742;53.532;-1.478;2022-07-21T08:34:52;23.20;58.90
23147;DHT22;11742;53.532;-1.478;2022-07-21T08:37:21;23.20;59.00
23147;DHT22;11742;53.532;-1.478;2022-07-21T08:39:47;23.30;58.80
23147;DHT22;11742;53.532;-1.478;2022-07-21T08:42:13;23.30;58.90
23147;DHT22;11742;53.532;-1.478;2022-07-21T08:44:39;23.30;58.90
23147;DHT22;11742;53.532;-1.478;2022-07-21T08:47:05;23.30;59.00
23147;DHT22;11742;53.532;-1.478;2022-07-21T08:49:36;23.30;58.80
23147;DHT22;11742;53.532;-1.478;2022-07-21T08:52:02;23.30;58.80
23147;DHT22;11742;53.532;-1.478;2022-07-21T08:54:31;23.30;58.80
23147;DHT22;11742;53.532;-1.478;2022-07-21T08:56:57;23.30;58.80
23147;DHT22;11742;53.532;-1.478;2022-07-21T08:59:23;23.30;58.80
23147;DHT22;11742;53.532;-1.478;2022-07-21T09:01:49;23.40;58.90
23147;DHT22;11742;53.532;-1.478;2022-07-21T09:04:33;23.40;58.90
23147;DHT22;11742;53.532;-1.478;2022-07-21T09:07:04;23.40;59.00
23147;DHT22;11742;53.532;-1.478;2022-07-21T09:09:33;23.40;58.90
23147;DHT22;11742;53.532;-1.478;2022-07-21T09:11:59;23.40;58.80
23147;DHT22;11742;53.532;-1.478;2022-07-21T09:14:29;23.40;58.90
23147;DHT22;11742;53.532;-1.478;2022-07-21T09:16:58;23.40;58.90
23147;DHT22;11742;53.532;-1.478;2022-07-21T09:19:26;23.40;59.00
23147;DHT22;11742;53.532;-1.478;2022-07-21T09:21:55;23.40;59.00
23147;DHT22;11742;53.532;-1.478;2022-07-21T09:24:27;23.40;59.00
23147;DHT22;11742;53.532;-1.478;2022-07-21T09:29:39;23.40;59.00
23147;DHT22;11742;53.532;-1.478;2022-07-21T09:34:55;23.50;58.80
23147;DHT22;11742;53.532;-1.478;2022-07-21T09:37:23;23.50;58.80
23147;DHT22;11742;53.532;-1.478;2022-07-21T09:39:52;23.50;58.80
23147;DHT22;11742;53.532;-1.478;2022-07-21T09:42:28;23.50;58.80
23147;DHT22;11742;53.532;-1.478;2022-07-21T09:45:00;23.50;58.80
23147;DHT22;11742;53.532;-1.478;2022-07-21T09:47:28;23.50;58.80
23147;DHT22;11742;53.532;-1.478;2022-07-21T09:49:54;23.50;58.70
23147;DHT22;11742;53.532;-1.478;2022-07-21T09:55:03;23.50;58.80
23147;DHT22;11742;53.532;-1.478;2022-07-21T09:57:29;23.50;58.80
23147;DHT22;11742;53.532;-1.478;2022-07-21T09:59:55;23.50;58.70
23147;DHT22;11742;53.532;-1.478;2022-07-21T10:07:41;23.50;58.70
23147;DHT22;11742;53.532;-1.478;2022-07-21T10:10:08;23.60;58.90
23147;DHT22;11742;53.532;-1.478;2022-07-21T10:12:34;23.50;58.90
23147;DHT22;11742;53.532;-1.478;2022-07-21T10:15:00;23.60;58.80
23147;DHT22;11742;53.532;-1.478;2022-07-21T10:17:26;23.60;58.70
23147;DHT22;11742;53.532;-1.478;2022-07-21T10:20:10;23.60;58.70
23147;DHT22;11742;53.532;-1.478;2022-07-21T10:22:57;23.60;58.80
23147;DHT22;11742;53.532;-1.478;2022-07-21T10:25:25;23.60;58.80
23147;DHT22;11742;53.532;-1.478;2022-07-21T10:28:16;23.70;58.70
23147;DHT22;11742;53.532;-1.478;2022-07-21T10:30:52;23.70;58.80
23147;DHT22;11742;53.532;-1.478;2022-07-21T10:33:21;23.60;58.80
23147;DHT22;11742;53.532;-1.478;2022-07-21T10:35:49;23.70;59.10
23147;DHT22;11742;53.532;-1.478;2022-07-21T10:38:35;23.70;59.00
23147;DHT22;11742;53.532;-1.478;2022-07-21T10:41:04;23.70;59.10
23147;DHT22;11742;53.532;-1.478;2022-07-21T10:45:58;23.70;59.00
23147;DHT22;11742;53.532;-1.478;2022-07-21T10:51:04;23.70;59.00
23147;DHT22;11742;53.532;-1.478;2022-07-21T10:53:32;23.80;59.10
23147;DHT22;11742;53.532;-1.478;2022-07-21T10:55:57;23.80;59.20
23147;DHT22;11742;53.532;-1.478;2022-07-21T10:58:36;23.80;59.00
23147;DHT22;11742;53.532;-1.478;2022-07-21T11:03:42;23.80;58.80
23147;DHT22;11742;53.532;-1.478;2022-07-21T11:06:22;23.80;58.70
23147;DHT22;11742;53.532;-1.478;2022-07-21T11:09:07;23.90;58.70
23147;DHT22;11742;53.532;-1.478;2022-07-21T11:11:39;23.90;58.70
23147;DHT22;11742;53.532;-1.478;2022-07-21T11:14:35;23.90;58.70
23147;DHT22;11742;53.532;-1.478;2022-07-21T11:17:02;23.90;58.60
23147;DHT22;11742;53.532;-1.478;2022-07-21T11:19:54;23.90;58.50
23147;DHT22;11742;53.532;-1.478;2022-07-21T11:22:29;23.90;58.50
23147;DHT22;11742;53.532;-1.478;2022-07-21T11:24:56;23.90;58.70
23147;DHT22;11742;53.532;-1.478;2022-07-21T11:27:25;23.90;58.60
23147;DHT22;11742;53.532;-1.478;2022-07-21T11:29:54;23.90;58.60
23147;DHT22;11742;53.532;-1.478;2022-07-21T11:32:21;24.00;58.70
23147;DHT22;11742;53.532;-1.478;2022-07-21T11:34:58;24.00;58.70
23147;DHT22;11742;53.532;-1.478;2022-07-21T11:37:38;24.00;58.80
23147;DHT22;11742;53.532;-1.478;2022-07-21T11:42:38;24.00;58.70
23147;DHT22;11742;53.532;-1.478;2022-07-21T11:45:05;24.10;58.70
23147;DHT22;11742;53.532;-1.478;2022-07-21T11:47:32;24.10;58.70
23147;DHT22;11742;53.532;-1.478;2022-07-21T11:49:59;24.10;58.80
23147;DHT22;11742;53.532;-1.478;2022-07-21T11:52:29;24.10;58.80
23147;DHT22;11742;53.532;-1.478;2022-07-21T11:54:57;24.10;58.80
23147;DHT22;11742;53.532;-1.478;2022-07-21T11:57:24;24.10;58.80
23147;DHT22;11742;53.532;-1.478;2022-07-21T11:59:51;24.10;58.60
23147;DHT22;11742;53.532;-1.478;2022-07-21T12:02:22;24.10;58.70
23147;DHT22;11742;53.532;-1.478;2022-07-21T12:04:52;24.20;58.80
23147;DHT22;11742;53.532;-1.478;2022-07-21T12:10:23;24.20;58.80
23147;DHT22;11742;53.532;-1.478;2022-07-21T12:12:49;24.10;63.90
23147;DHT22;11742;53.532;-1.478;2022-07-21T12:15:27;23.70;65.60
23147;DHT22;11742;53.532;-1.478;2022-07-21T12:18:13;23.60;64.80
23147;DHT22;11742;53.532;-1.478;2022-07-21T12:20:42;23.70;63.10
23147;DHT22;11742;53.532;-1.478;2022-07-21T12:23:30;23.80;62.00
23147;DHT22;11742;53.532;-1.478;2022-07-21T12:25:58;23.90;61.20
23147;DHT22;11742;53.532;-1.478;2022-07-21T12:28:44;23.90;60.90
23147;DHT22;11742;53.532;-1.478;2022-07-21T12:31:14;23.90;60.40
23147;DHT22;11742;53.532;-1.478;2022-07-21T12:33:42;23.90;60.30
23147;DHT22;11742;53.532;-1.478;2022-07-21T12:36:09;24.00;60.10
23147;DHT22;11742;53.532;-1.478;2022-07-21T12:38:44;24.00;59.80
23147;DHT22;11742;53.532;-1.478;2022-07-21T12:41:18;24.00;59.80
23147;DHT22;11742;53.532;-1.478;2022-07-21T12:43:58;24.00;59.70
23147;DHT22;11742;53.532;-1.478;2022-07-21T12:46:32;24.10;59.70
23147;DHT22;11742;53.532;-1.478;2022-07-21T12:49:09;24.10;59.50
23147;DHT22;11742;53.532;-1.478;2022-07-21T12:51:36;24.10;59.40
23147;DHT22;11742;53.532;-1.478;2022-07-21T12:54:02;24.10;59.40
23147;DHT22;11742;53.532;-1.478;2022-07-21T12:56:31;24.10;59.30
23147;DHT22;11742;53.532;-1.478;2022-07-21T12:58:58;24.10;59.40
23147;DHT22;11742;53.532;-1.478;2022-07-21T13:01:26;24.20;59.40
23147;DHT22;11742;53.532;-1.478;2022-07-21T13:03:52;24.10;59.20
23147;DHT22;11742;53.532;-1.478;2022-07-21T13:06:19;24.20;59.10
23147;DHT22;11742;53.532;-1.478;2022-07-21T13:08:46;24.20;59.10
23147;DHT22;11742;53.532;-1.478;2022-07-21T13:11:20;24.20;59.00
23147;DHT22;11742;53.532;-1.478;2022-07-21T13:13:47;24.30;58.90
23147;DHT22;11742;53.532;-1.478;2022-07-21T13:16:14;24.30;58.80
23147;DHT22;11742;53.532;-1.478;2022-07-21T13:18:39;24.30;58.80
23147;DHT22;11742;53.532;-1.478;2022-07-21T13:21:05;24.30;58.80
23147;DHT22;11742;53.532;-1.478;2022-07-21T13:23:31;24.30;61.00
23147;DHT22;11742;53.532;-1.478;2022-07-21T13:25:57;24.30;60.60
23147;DHT22;11742;53.532;-1.478;2022-07-21T13:28:23;24.30;59.60
23147;DHT22;11742;53.532;-1.478;2022-07-21T13:30:49;24.30;59.20
23147;DHT22;11742;53.532;-1.478;2022-07-21T13:33:15;24.30;59.00
23147;DHT22;11742;53.532;-1.478;2022-07-21T13:35:41;24.30;58.90
23147;DHT22;11742;53.532;-1.478;2022-07-21T13:38:07;24.30;58.80
23147;DHT22;11742;53.532;-1.478;2022-07-21T13:40:33;24.30;58.70
23147;DHT22;11742;53.532;-1.478;2022-07-21T13:42:59;24.30;58.70
23147;DHT22;11742;53.532;-1.478;2022-07-21T13:45:25;24.30;58.60
23147;DHT22;11742;53.532;-1.478;2022-07-21T13:47:51;24.30;58.60
23147;DHT22;11742;53.532;-1.478;2022-07-21T13:50:16;24.40;58.60
23147;DHT22;11742;53.532;-1.478;2022-07-21T13:52:42;24.40;58.60
23147;DHT22;11742;53.532;-1.478;2022-07-21T13:55:09;24.40;58.50
23147;DHT22;11742;53.532;-1.478;2022-07-21T13:57:35;24.40;58.50
23147;DHT22;11742;53.532;-1.478;2022-07-21T14:00:07;24.40;58.40
23147;DHT22;11742;53.532;-1.478;2022-07-21T14:02:34;24.40;58.40
23147;DHT22;11742;53.532;-1.478;2022-07-21T14:05:00;24.40;58.30
23147;DHT22;11742;53.532;-1.478;2022-07-21T14:07:25;24.40;58.30
23147;DHT22;11742;53.532;-1.478;2022-07-21T14:09:51;24.40;58.30
23147;DHT22;11742;53.532;-1.478;2022-07-21T14:12:17;24.40;58.20
23147;DHT22;11742;53.532;-1.478;2022-07-21T14:14:44;24.40;58.20
23147;DHT22;11742;53.532;-1.478;2022-07-21T14:17:15;24.40;58.20
23147;DHT22;11742;53.532;-1.478;2022-07-21T14:19:43;24.40;58.20
23147;DHT22;11742;53.532;-1.478;2022-07-21T14:22:10;24.40;58.10
23147;DHT22;11742;53.532;-1.478;2022-07-21T14:24:36;24.40;58.80
23147;DHT22;11742;53.532;-1.478;2022-07-21T14:27:21;24.40;58.00
23147;DHT22;11742;53.532;-1.478;2022-07-21T14:29:46;24.40;58.00
23147;DHT22;11742;53.532;-1.478;2022-07-21T14:32:12;24.40;58.00
23147;DHT22;11742;53.532;-1.478;2022-07-21T14:34:38;24.40;57.90
23147;DHT22;11742;53.532;-1.478;2022-07-21T14:37:04;24.40;57.90
23147;DHT22;11742;53.532;-1.478;2022-07-21T14:39:30;24.40;57.90
23147;DHT22;11742;53.532;-1.478;2022-07-21T14:41:56;24.50;57.90
23147;DHT22;11742;53.532;-1.478;2022-07-21T14:44:21;24.50;57.80
23147;DHT22;11742;53.532;-1.478;2022-07-21T14:46:47;24.40;57.80
23147;DHT22;11742;53.532;-1.478;2022-07-21T14:49:13;24.40;57.70
23147;DHT22;11742;53.532;-1.478;2022-07-21T14:51:38;24.50;57.80
23147;DHT22;11742;53.532;-1.478;2022-07-21T14:54:04;24.50;57.70
23147;DHT22;11742;53.532;-1.478;2022-07-21T14:56:30;24.50;57.70
23147;DHT22;11742;53.532;-1.478;2022-07-21T14:58:56;24.50;57.70
23147;DHT22;11742;53.532;-1.478;2022-07-21T15:01:24;24.50;57.70
23147;DHT22;11742;53.532;-1.478;2022-07-21T15:03:50;24.50;57.70
23147;DHT22;11742;53.532;-1.478;2022-07-21T15:06:16;24.50;57.70
23147;DHT22;11742;53.532;-1.478;2022-07-21T15:08:41;24.50;57.60
23147;DHT22;11742;53.532;-1.478;2022-07-21T15:11:07;24.50;57.60
23147;DHT22;11742;53.532;-1.478;2022-07-21T15:13:33;24.50;57.60
23147;DHT22;11742;53.532;-1.478;2022-07-21T15:15:58;24.50;57.60
23147;DHT22;11742;53.532;-1.478;2022-07-21T15:18:24;24.50;57.50
23147;DHT22;11742;53.532;-1.478;2022-07-21T15:20:50;24.50;57.60
23147;DHT22;11742;53.532;-1.478;2022-07-21T15:23:15;24.50;57.60
23147;DHT22;11742;53.532;-1.478;2022-07-21T15:25:41;24.50;57.60
23147;DHT22;11742;53.532;-1.478;2022-07-21T15:28:07;24.50;57.50
23147;DHT22;11742;53.532;-1.478;2022-07-21T15:30:33;24.50;57.50
23147;DHT22;11742;53.532;-1.478;2022-07-21T15:32:59;24.50;57.50
23147;DHT22;11742;53.532;-1.478;2022-07-21T15:35:25;24.50;57.60
23147;DHT22;11742;53.532;-1.478;2022-07-21T15:37:51;24.50;57.60
23147;DHT22;11742;53.532;-1.478;2022-07-21T15:40:16;24.50;57.50
23147;DHT22;11742;53.532;-1.478;2022-07-21T15:42:43;24.50;57.50
23147;DHT22;11742;53.532;-1.478;2022-07-21T15:45:10;24.50;57.50